sensor_id;sensor_type;location;lat;lon;timestamp;P1;durP1;ratioP1;P2;durP2;ratioP2
253;SDS011;590;48.772;8.846;2023-01-19T00:01:27;4.73;;;4.43;;
253;SDS011;590;48.772;8.846;2023-01-19T00:03:55;4.80;;;4.50;;
253;SDS011;590;48.772;8.846;2023-01-19T00:06:24;5.00;;;4.70;;
253;SDS011;590;48.772;8.846;2023-01-19T00:08:53;5.40;;;5.10;;
253;SDS011;590;48.772;8.846;2023-01-19T00:11:21;5.33;;;5.03;;
253;SDS011;590;48.772;8.846;2023-01-19T00:13:49;4.97;;;4.67;;
253;SDS011;590;48.772;8.846;2023-01-19T00:16:19;5.40;;;5.10;;
253;SDS011;590;48.772;8.846;2023-01-19T00:21:44;5.30;;;5.00;;
253;SDS011;590;48.772;8.846;2023-01-19T00:24:13;5.53;;;5.23;;
253;SDS011;590;48.772;8.846;2023-01-19T00:26:41;5.37;;;5.07;;
253;SDS011;590;48.772;8.846;2023-01-19T00:29:09;4.87;;;4.57;;
253;SDS011;590;48.772;8.846;2023-01-19T00:31:38;4.17;;;3.93;;
253;SDS011;590;48.772;8.846;2023-01-19T00:34:06;5.43;;;5.13;;
253;SDS011;590;48.772;8.846;2023-01-19T00:36:35;5.30;;;5.00;;
253;SDS011;590;48.772;8.846;2023-01-19T00:39:04;5.40;;;5.15;;
253;SDS011;590;48.772;8.846;2023-01-19T00:41:32;4.70;;;4.40;;
253;SDS011;590;48.772;8.846;2023-01-19T00:44:18;4.60;;;4.30;;
253;SDS011;590;48.772;8.846;2023-01-19T00:46:46;4.50;;;4.20;;
253;SDS011;590;48.772;8.846;2023-01-19T00:49:13;5.27;;;4.97;;
253;SDS011;590;48.772;8.846;2023-01-19T00:51:42;5.03;;;4.73;;
253;SDS011;590;48.772;8.846;2023-01-19T00:54:11;4.70;;;4.40;;
253;SDS011;590;48.772;8.846;2023-01-19T00:56:39;5.20;;;4.90;;
253;SDS011;590;48.772;8.846;2023-01-19T00:59:14;5.07;;;4.77;;
253;SDS011;590;48.772;8.846;2023-01-19T01:02:07;5.47;;;5.17;;
253;SDS011;590;48.772;8.846;2023-01-19T01:04:36;4.60;;;4.30;;
253;SDS011;590;48.772;8.846;2023-01-19T01:07:05;4.53;;;4.23;;
253;SDS011;590;48.772;8.846;2023-01-19T01:09:34;4.80;;;4.50;;
253;SDS011;590;48.772;8.846;2023-01-19T01:12:02;4.70;;;4.40;;
253;SDS011;590;48.772;8.846;2023-01-19T01:14:31;4.90;;;4.60;;
253;SDS011;590;48.772;8.846;2023-01-19T01:16:59;4.87;;;4.57;;
253;SDS011;590;48.772;8.846;2023-01-19T01:19:27;4.73;;;4.43;;
253;SDS011;590;48.772;8.846;2023-01-19T01:21:55;4.87;;;4.57;;
253;SDS011;590;48.772;8.846;2023-01-19T01:24:23;4.70;;;4.40;;
253;SDS011;590;48.772;8.846;2023-01-19T01:26:52;4.80;;;4.50;;
253;SDS011;590;48.772;8.846;2023-01-19T01:29:21;4.07;;;3.83;;
253;SDS011;590;48.772;8.846;2023-01-19T01:31:49;4.00;;;3.80;;
253;SDS011;590;48.772;8.846;2023-01-19T01:34:17;4.40;;;4.10;;
253;SDS011;590;48.772;8.846;2023-01-19T01:36:45;4.93;;;4.63;;
253;SDS011;590;48.772;8.846;2023-01-19T01:39:13;4.00;;;3.80;;
253;SDS011;590;48.772;8.846;2023-01-19T01:41:41;5.27;;;5.00;;
253;SDS011;590;48.772;8.846;2023-01-19T01:47:17;4.17;;;3.93;;
253;SDS011;590;48.772;8.846;2023-01-19T01:49:50;4.67;;;4.33;;
253;SDS011;590;48.772;8.846;2023-01-19T01:52:23;4.23;;;3.97;;
253;SDS011;590;48.772;8.846;2023-01-19T01:54:53;4.27;;;4.00;;
253;SDS011;590;48.772;8.846;2023-01-19T01:57:22;4.83;;;4.53;;
253;SDS011;590;48.772;8.846;2023-01-19T01:59:54;4.47;;;4.17;;
253;SDS011;590;48.772;8.846;2023-01-19T02:02:25;4.73;;;4.43;;
253;SDS011;590;48.772;8.846;2023-01-19T02:05:14;4.27;;;4.00;;
253;SDS011;590;48.772;8.846;2023-01-19T02:07:47;4.50;;;4.20;;
253;SDS011;590;48.772;8.846;2023-01-19T02:10:36;4.03;;;3.83;;
253;SDS011;590;48.772;8.846;2023-01-19T02:13:23;4.90;;;4.60;;
253;SDS011;590;48.772;8.846;2023-01-19T02:15:54;4.70;;;4.40;;
253;SDS011;590;48.772;8.846;2023-01-19T02:18:25;4.37;;;4.07;;
253;SDS011;590;48.772;8.846;2023-01-19T02:20:56;4.63;;;4.33;;
253;SDS011;590;48.772;8.846;2023-01-19T02:26:11;4.07;;;3.87;;
253;SDS011;590;48.772;8.846;2023-01-19T02:28:43;4.53;;;4.23;;
253;SDS011;590;48.772;8.846;2023-01-19T02:31:14;4.53;;;4.23;;
253;SDS011;590;48.772;8.846;2023-01-19T02:33:43;4.00;;;3.80;;
253;SDS011;590;48.772;8.846;2023-01-19T02:36:11;4.10;;;3.90;;
253;SDS011;590;48.772;8.846;2023-01-19T02:38:43;4.77;;;4.47;;
253;SDS011;590;48.772;8.846;2023-01-19T02:41:15;3.97;;;3.77;;
253;SDS011;590;48.772;8.846;2023-01-19T02:43:45;3.70;;;3.50;;
253;SDS011;590;48.772;8.846;2023-01-19T02:46:15;4.50;;;4.20;;
253;SDS011;590;48.772;8.846;2023-01-19T02:48:43;3.60;;;3.40;;
253;SDS011;590;48.772;8.846;2023-01-19T02:51:12;3.87;;;3.67;;
253;SDS011;590;48.772;8.846;2023-01-19T02:53:49;4.40;;;4.10;;
253;SDS011;590;48.772;8.846;2023-01-19T02:56:33;4.03;;;3.80;;
253;SDS011;590;48.772;8.846;2023-01-19T02:59:19;4.33;;;4.07;;
253;SDS011;590;48.772;8.846;2023-01-19T03:02:00;3.90;;;3.70;;
253;SDS011;590;48.772;8.846;2023-01-19T03:04:49;4.27;;;4.00;;
253;SDS011;590;48.772;8.846;2023-01-19T03:07:29;3.97;;;3.80;;
253;SDS011;590;48.772;8.846;2023-01-19T03:10:04;3.90;;;3.70;;
253;SDS011;590;48.772;8.846;2023-01-19T03:12:37;4.27;;;4.00;;
253;SDS011;590;48.772;8.846;2023-01-19T03:15:12;4.27;;;4.00;;
253;SDS011;590;48.772;8.846;2023-01-19T03:17:45;4.07;;;3.87;;
253;SDS011;590;48.772;8.846;2023-01-19T03:20:17;4.37;;;4.07;;
253;SDS011;590;48.772;8.846;2023-01-19T03:22:51;3.43;;;3.23;;
253;SDS011;590;48.772;8.846;2023-01-19T03:25:22;3.57;;;3.37;;
253;SDS011;590;48.772;8.846;2023-01-19T03:27:51;3.37;;;3.17;;
253;SDS011;590;48.772;8.846;2023-01-19T03:30:23;3.70;;;3.50;;
253;SDS011;590;48.772;8.846;2023-01-19T03:32:55;3.90;;;3.70;;
253;SDS011;590;48.772;8.846;2023-01-19T03:35:29;3.50;;;3.30;;
253;SDS011;590;48.772;8.846;2023-01-19T03:38:02;3.70;;;3.50;;
253;SDS011;590;48.772;8.846;2023-01-19T03:40:35;3.60;;;3.40;;
253;SDS011;590;48.772;8.846;2023-01-19T03:43:03;3.90;;;3.70;;
253;SDS011;590;48.772;8.846;2023-01-19T03:45:32;3.70;;;3.50;;
253;SDS011;590;48.772;8.846;2023-01-19T03:48:03;3.40;;;3.20;;
253;SDS011;590;48.772;8.846;2023-01-19T03:50:32;3.37;;;3.17;;
253;SDS011;590;48.772;8.846;2023-01-19T03:53:01;3.30;;;3.10;;
253;SDS011;590;48.772;8.846;2023-01-19T03:55:34;3.40;;;3.20;;
253;SDS011;590;48.772;8.846;2023-01-19T03:58:04;3.10;;;2.90;;
253;SDS011;590;48.772;8.846;2023-01-19T04:00:33;3.33;;;3.13;;
253;SDS011;590;48.772;8.846;2023-01-19T04:03:01;3.60;;;3.40;;
253;SDS011;590;48.772;8.846;2023-01-19T04:05:30;3.20;;;3.00;;
253;SDS011;590;48.772;8.846;2023-01-19T04:07:59;3.70;;;3.50;;
253;SDS011;590;48.772;8.846;2023-01-19T04:10:26;3.27;;;3.07;;
253;SDS011;590;48.772;8.846;2023-01-19T04:12:59;3.10;;;2.90;;
253;SDS011;590;48.772;8.846;2023-01-19T04:15:28;3.27;;;3.07;;
253;SDS011;590;48.772;8.846;2023-01-19T04:17:57;2.83;;;2.63;;
253;SDS011;590;48.772;8.846;2023-01-19T04:20:26;2.97;;;2.77;;
253;SDS011;590;48.772;8.846;2023-01-19T04:22:57;3.10;;;2.90;;
253;SDS011;590;48.772;8.846;2023-01-19T04:25:27;3.37;;;3.17;;
253;SDS011;590;48.772;8.846;2023-01-19T04:27:55;3.30;;;3.10;;
253;SDS011;590;48.772;8.846;2023-01-19T04:30:25;2.60;;;2.40;;
253;SDS011;590;48.772;8.846;2023-01-19T04:32:53;3.40;;;3.20;;
253;SDS011;590;48.772;8.846;2023-01-19T04:35:21;3.03;;;2.83;;
253;SDS011;590;48.772;8.846;2023-01-19T04:37:49;3.07;;;2.87;;
253;SDS011;590;48.772;8.846;2023-01-19T04:40:17;2.87;;;2.67;;
253;SDS011;590;48.772;8.846;2023-01-19T04:42:45;3.20;;;3.00;;
253;SDS011;590;48.772;8.846;2023-01-19T04:45:13;3.07;;;2.87;;
253;SDS011;590;48.772;8.846;2023-01-19T04:47:44;3.00;;;2.80;;
253;SDS011;590;48.772;8.846;2023-01-19T04:50:11;2.90;;;2.70;;
253;SDS011;590;48.772;8.846;2023-01-19T04:52:40;3.03;;;2.87;;
253;SDS011;590;48.772;8.846;2023-01-19T04:55:08;2.80;;;2.60;;
253;SDS011;590;48.772;8.846;2023-01-19T04:57:37;2.43;;;2.23;;
253;SDS011;590;48.772;8.846;2023-01-19T05:00:05;2.80;;;2.60;;
253;SDS011;590;48.772;8.846;2023-01-19T05:02:34;2.80;;;2.60;;
253;SDS011;590;48.772;8.846;2023-01-19T05:05:04;2.57;;;2.37;;
253;SDS011;590;48.772;8.846;2023-01-19T05:07:32;2.80;;;2.60;;
253;SDS011;590;48.772;8.846;2023-01-19T05:10:00;3.00;;;2.80;;
253;SDS011;590;48.772;8.846;2023-01-19T05:12:28;3.00;;;2.80;;
253;SDS011;590;48.772;8.846;2023-01-19T05:14:56;3.07;;;2.87;;
253;SDS011;590;48.772;8.846;2023-01-19T05:17:24;2.73;;;2.53;;
253;SDS011;590;48.772;8.846;2023-01-19T05:19:52;2.97;;;2.77;;
253;SDS011;590;48.772;8.846;2023-01-19T05:22:21;3.00;;;2.80;;
253;SDS011;590;48.772;8.846;2023-01-19T05:24:49;2.80;;;2.60;;
253;SDS011;590;48.772;8.846;2023-01-19T05:27:17;2.47;;;2.27;;
253;SDS011;590;48.772;8.846;2023-01-19T05:29:45;2.93;;;2.73;;
253;SDS011;590;48.772;8.846;2023-01-19T05:32:13;2.30;;;2.10;;
253;SDS011;590;48.772;8.846;2023-01-19T05:34:41;3.10;;;2.90;;
253;SDS011;590;48.772;8.846;2023-01-19T05:37:09;2.87;;;2.67;;
253;SDS011;590;48.772;8.846;2023-01-19T05:39:38;2.93;;;2.80;;
253;SDS011;590;48.772;8.846;2023-01-19T05:42:06;2.97;;;2.80;;
253;SDS011;590;48.772;8.846;2023-01-19T05:44:44;3.13;;;2.93;;
253;SDS011;590;48.772;8.846;2023-01-19T05:47:12;2.90;;;2.70;;
253;SDS011;590;48.772;8.846;2023-01-19T05:49:41;3.10;;;2.90;;
253;SDS011;590;48.772;8.846;2023-01-19T05:52:09;3.23;;;3.03;;
253;SDS011;590;48.772;8.846;2023-01-19T05:54:38;2.63;;;2.43;;
253;SDS011;590;48.772;8.846;2023-01-19T05:57:06;2.70;;;2.50;;
253;SDS011;590;48.772;8.846;2023-01-19T05:59:34;3.40;;;3.20;;
253;SDS011;590;48.772;8.846;2023-01-19T06:02:02;2.93;;;2.73;;
253;SDS011;590;48.772;8.846;2023-01-19T06:04:30;2.80;;;2.60;;
253;SDS011;590;48.772;8.846;2023-01-19T06:06:58;3.57;;;3.37;;
253;SDS011;590;48.772;8.846;2023-01-19T06:09:27;3.17;;;3.00;;
253;SDS011;590;48.772;8.846;2023-01-19T06:11:56;2.47;;;2.27;;
253;SDS011;590;48.772;8.846;2023-01-19T06:14:24;3.20;;;3.00;;
253;SDS011;590;48.772;8.846;2023-01-19T06:16:52;3.00;;;2.80;;
253;SDS011;590;48.772;8.846;2023-01-19T06:19:20;3.20;;;3.00;;
253;SDS011;590;48.772;8.846;2023-01-19T06:21:48;2.90;;;2.70;;
253;SDS011;590;48.772;8.846;2023-01-19T06:24:17;2.70;;;2.50;;
253;SDS011;590;48.772;8.846;2023-01-19T06:26:45;2.83;;;2.63;;
253;SDS011;590;48.772;8.846;2023-01-19T06:29:15;3.10;;;2.90;;
253;SDS011;590;48.772;8.846;2023-01-19T06:31:43;2.73;;;2.53;;
253;SDS011;590;48.772;8.846;2023-01-19T06:34:11;2.70;;;2.50;;
253;SDS011;590;48.772;8.846;2023-01-19T06:36:40;3.40;;;3.20;;
253;SDS011;590;48.772;8.846;2023-01-19T06:39:08;3.03;;;2.83;;
253;SDS011;590;48.772;8.846;2023-01-19T06:41:36;3.13;;;2.93;;
253;SDS011;590;48.772;8.846;2023-01-19T06:44:04;2.77;;;2.57;;
253;SDS011;590;48.772;8.846;2023-01-19T06:46:34;2.87;;;2.67;;
253;SDS011;590;48.772;8.846;2023-01-19T06:49:02;2.53;;;2.33;;
253;SDS011;590;48.772;8.846;2023-01-19T06:51:30;2.97;;;2.77;;
253;SDS011;590;48.772;8.846;2023-01-19T06:53:58;2.93;;;2.73;;
253;SDS011;590;48.772;8.846;2023-01-19T06:56:27;2.83;;;2.63;;
253;SDS011;590;48.772;8.846;2023-01-19T06:58:55;2.67;;;2.47;;
253;SDS011;590;48.772;8.846;2023-01-19T07:01:23;2.63;;;2.43;;
253;SDS011;590;48.772;8.846;2023-01-19T07:03:53;2.80;;;2.60;;
253;SDS011;590;48.772;8.846;2023-01-19T07:06:21;2.87;;;2.67;;
253;SDS011;590;48.772;8.846;2023-01-19T07:08:49;2.87;;;2.67;;
253;SDS011;590;48.772;8.846;2023-01-19T07:11:17;3.10;;;2.90;;
253;SDS011;590;48.772;8.846;2023-01-19T07:13:55;3.03;;;2.83;;
253;SDS011;590;48.772;8.846;2023-01-19T07:16:23;3.30;;;3.10;;
253;SDS011;590;48.772;8.846;2023-01-19T07:18:51;2.70;;;2.50;;
253;SDS011;590;48.772;8.846;2023-01-19T07:21:21;3.43;;;3.23;;
253;SDS011;590;48.772;8.846;2023-01-19T07:23:49;2.80;;;2.60;;
253;SDS011;590;48.772;8.846;2023-01-19T07:26:18;2.83;;;2.63;;
253;SDS011;590;48.772;8.846;2023-01-19T07:28:47;2.43;;;2.23;;
253;SDS011;590;48.772;8.846;2023-01-19T07:31:15;2.80;;;2.60;;
253;SDS011;590;48.772;8.846;2023-01-19T07:33:44;2.60;;;2.40;;
253;SDS011;590;48.772;8.846;2023-01-19T07:36:14;2.90;;;2.70;;
253;SDS011;590;48.772;8.846;2023-01-19T07:38:42;2.63;;;2.43;;
253;SDS011;590;48.772;8.846;2023-01-19T07:41:10;2.70;;;2.50;;
253;SDS011;590;48.772;8.846;2023-01-19T07:43:38;3.43;;;2.80;;
253;SDS011;590;48.772;8.846;2023-01-19T07:46:06;2.77;;;2.60;;
253;SDS011;590;48.772;8.846;2023-01-19T07:48:34;3.73;;;2.77;;
253;SDS011;590;48.772;8.846;2023-01-19T07:51:03;2.40;;;2.20;;
253;SDS011;590;48.772;8.846;2023-01-19T07:53:39;2.57;;;2.37;;
253;SDS011;590;48.772;8.846;2023-01-19T07:56:07;2.20;;;2.00;;
253;SDS011;590;48.772;8.846;2023-01-19T07:58:36;2.73;;;2.53;;
253;SDS011;590;48.772;8.846;2023-01-19T08:01:05;2.63;;;2.43;;
253;SDS011;590;48.772;8.846;2023-01-19T08:03:34;2.90;;;2.70;;
253;SDS011;590;48.772;8.846;2023-01-19T08:06:02;2.60;;;2.40;;
253;SDS011;590;48.772;8.846;2023-01-19T08:08:32;2.87;;;2.67;;
253;SDS011;590;48.772;8.846;2023-01-19T08:11:01;2.50;;;2.30;;
253;SDS011;590;48.772;8.846;2023-01-19T08:13:29;2.80;;;2.60;;
253;SDS011;590;48.772;8.846;2023-01-19T08:15:57;2.53;;;2.33;;
253;SDS011;590;48.772;8.846;2023-01-19T08:18:25;2.50;;;2.30;;
253;SDS011;590;48.772;8.846;2023-01-19T08:20:53;2.80;;;2.60;;
253;SDS011;590;48.772;8.846;2023-01-19T08:23:21;2.30;;;2.10;;
253;SDS011;590;48.772;8.846;2023-01-19T08:25:49;2.50;;;2.30;;
253;SDS011;590;48.772;8.846;2023-01-19T08:28:19;2.47;;;2.27;;
253;SDS011;590;48.772;8.846;2023-01-19T08:30:48;2.70;;;2.50;;
253;SDS011;590;48.772;8.846;2023-01-19T08:33:20;1.93;;;1.83;;
253;SDS011;590;48.772;8.846;2023-01-19T08:35:49;2.63;;;2.43;;
253;SDS011;590;48.772;8.846;2023-01-19T08:38:18;2.00;;;1.90;;
253;SDS011;590;48.772;8.846;2023-01-19T08:40:47;3.17;;;2.97;;
253;SDS011;590;48.772;8.846;2023-01-19T08:43:15;3.20;;;3.00;;
253;SDS011;590;48.772;8.846;2023-01-19T08:45:48;2.50;;;2.30;;
253;SDS011;590;48.772;8.846;2023-01-19T08:48:18;2.73;;;2.53;;
253;SDS011;590;48.772;8.846;2023-01-19T08:50:48;2.03;;;1.90;;
253;SDS011;590;48.772;8.846;2023-01-19T08:53:17;2.70;;;2.50;;
253;SDS011;590;48.772;8.846;2023-01-19T08:55:48;2.67;;;2.47;;
253;SDS011;590;48.772;8.846;2023-01-19T08:58:16;2.00;;;1.90;;
253;SDS011;590;48.772;8.846;2023-01-19T09:00:45;2.97;;;2.77;;
253;SDS011;590;48.772;8.846;2023-01-19T09:03:14;2.30;;;2.10;;
253;SDS011;590;48.772;8.846;2023-01-19T09:05:42;2.43;;;2.23;;
253;SDS011;590;48.772;8.846;2023-01-19T09:08:11;2.20;;;2.00;;
253;SDS011;590;48.772;8.846;2023-01-19T09:10:43;2.37;;;2.17;;
253;SDS011;590;48.772;8.846;2023-01-19T09:13:13;2.37;;;2.17;;
253;SDS011;590;48.772;8.846;2023-01-19T09:15:41;2.40;;;2.20;;
253;SDS011;590;48.772;8.846;2023-01-19T09:18:12;2.23;;;2.03;;
253;SDS011;590;48.772;8.846;2023-01-19T09:20:41;2.50;;;2.30;;
253;SDS011;590;48.772;8.846;2023-01-19T09:23:11;2.27;;;2.07;;
253;SDS011;590;48.772;8.846;2023-01-19T09:25:41;2.27;;;2.07;;
253;SDS011;590;48.772;8.846;2023-01-19T09:28:11;2.40;;;2.20;;
253;SDS011;590;48.772;8.846;2023-01-19T09:30:41;2.40;;;2.10;;
253;SDS011;590;48.772;8.846;2023-01-19T09:33:10;2.27;;;2.07;;
253;SDS011;590;48.772;8.846;2023-01-19T09:35:41;2.07;;;1.93;;
253;SDS011;590;48.772;8.846;2023-01-19T09:38:10;2.63;;;2.43;;
253;SDS011;590;48.772;8.846;2023-01-19T09:40:40;2.37;;;2.17;;
253;SDS011;590;48.772;8.846;2023-01-19T09:43:14;2.30;;;2.10;;
253;SDS011;590;48.772;8.846;2023-01-19T09:45:47;2.13;;;1.97;;
253;SDS011;590;48.772;8.846;2023-01-19T09:48:25;2.40;;;2.20;;
253;SDS011;590;48.772;8.846;2023-01-19T09:50:59;2.30;;;2.10;;
253;SDS011;590;48.772;8.846;2023-01-19T09:53:33;2.33;;;2.13;;
253;SDS011;590;48.772;8.846;2023-01-19T09:56:11;2.33;;;2.13;;
253;SDS011;590;48.772;8.846;2023-01-19T09:58:41;2.23;;;2.03;;
253;SDS011;590;48.772;8.846;2023-01-19T10:01:13;1.83;;;1.77;;
253;SDS011;590;48.772;8.846;2023-01-19T10:03:50;2.40;;;2.20;;
253;SDS011;590;48.772;8.846;2023-01-19T10:06:31;2.30;;;2.10;;
253;SDS011;590;48.772;8.846;2023-01-19T10:09:00;2.23;;;2.00;;
253;SDS011;590;48.772;8.846;2023-01-19T10:11:38;2.00;;;1.90;;
253;SDS011;590;48.772;8.846;2023-01-19T10:14:19;1.77;;;1.67;;
253;SDS011;590;48.772;8.846;2023-01-19T10:16:55;2.20;;;2.00;;
253;SDS011;590;48.772;8.846;2023-01-19T10:19:33;2.47;;;2.27;;
253;SDS011;590;48.772;8.846;2023-01-19T10:22:06;2.50;;;2.30;;
253;SDS011;590;48.772;8.846;2023-01-19T10:24:45;1.90;;;1.80;;
253;SDS011;590;48.772;8.846;2023-01-19T10:27:18;1.77;;;1.70;;
253;SDS011;590;48.772;8.846;2023-01-19T10:29:50;2.30;;;2.13;;
253;SDS011;590;48.772;8.846;2023-01-19T10:32:19;2.07;;;1.93;;
253;SDS011;590;48.772;8.846;2023-01-19T10:34:50;2.30;;;2.10;;
253;SDS011;590;48.772;8.846;2023-01-19T10:37:24;2.20;;;2.00;;
253;SDS011;590;48.772;8.846;2023-01-19T10:39:58;2.43;;;2.23;;
253;SDS011;590;48.772;8.846;2023-01-19T10:42:42;2.57;;;2.37;;
253;SDS011;590;48.772;8.846;2023-01-19T10:45:13;2.53;;;2.30;;
253;SDS011;590;48.772;8.846;2023-01-19T10:47:42;1.90;;;1.80;;
253;SDS011;590;48.772;8.846;2023-01-19T10:50:22;2.13;;;1.97;;
253;SDS011;590;48.772;8.846;2023-01-19T10:52:52;2.20;;;2.00;;
253;SDS011;590;48.772;8.846;2023-01-19T10:55:23;1.90;;;1.80;;
253;SDS011;590;48.772;8.846;2023-01-19T10:57:53;1.93;;;1.83;;
253;SDS011;590;48.772;8.846;2023-01-19T11:00:28;2.53;;;2.33;;
253;SDS011;590;48.772;8.846;2023-01-19T11:02:58;2.30;;;2.10;;
253;SDS011;590;48.772;8.846;2023-01-19T11:05:30;1.90;;;1.80;;
253;SDS011;590;48.772;8.846;2023-01-19T11:07:59;2.07;;;1.93;;
253;SDS011;590;48.772;8.846;2023-01-19T11:10:38;1.93;;;1.83;;
253;SDS011;590;48.772;8.846;2023-01-19T11:13:08;1.93;;;1.83;;
253;SDS011;590;48.772;8.846;2023-01-19T11:15:41;2.13;;;1.97;;
253;SDS011;590;48.772;8.846;2023-01-19T11:18:19;1.80;;;1.70;;
253;SDS011;590;48.772;8.846;2023-01-19T11:20:52;1.63;;;1.53;;
253;SDS011;590;48.772;8.846;2023-01-19T11:23:24;1.93;;;1.60;;
253;SDS011;590;48.772;8.846;2023-01-19T11:25:55;1.93;;;1.83;;
253;SDS011;590;48.772;8.846;2023-01-19T11:28:26;1.83;;;1.73;;
253;SDS011;590;48.772;8.846;2023-01-19T11:30:58;2.20;;;2.00;;
253;SDS011;590;48.772;8.846;2023-01-19T11:33:31;2.27;;;2.07;;
253;SDS011;590;48.772;8.846;2023-01-19T11:36:06;2.20;;;2.00;;
253;SDS011;590;48.772;8.846;2023-01-19T11:38:46;2.00;;;1.90;;
253;SDS011;590;48.772;8.846;2023-01-19T11:41:17;1.90;;;1.80;;
253;SDS011;590;48.772;8.846;2023-01-19T11:43:48;2.07;;;1.93;;
253;SDS011;590;48.772;8.846;2023-01-19T11:46:19;1.80;;;1.80;;
253;SDS011;590;48.772;8.846;2023-01-19T11:48:51;1.90;;;1.80;;
253;SDS011;590;48.772;8.846;2023-01-19T11:51:28;2.00;;;1.90;;
253;SDS011;590;48.772;8.846;2023-01-19T11:54:06;1.80;;;1.73;;
253;SDS011;590;48.772;8.846;2023-01-19T11:56:41;2.00;;;1.90;;
253;SDS011;590;48.772;8.846;2023-01-19T11:59:10;1.50;;;1.50;;
253;SDS011;590;48.772;8.846;2023-01-19T12:01:39;2.00;;;1.60;;
253;SDS011;590;48.772;8.846;2023-01-19T12:04:14;1.70;;;1.60;;
253;SDS011;590;48.772;8.846;2023-01-19T12:06:48;1.77;;;1.67;;
253;SDS011;590;48.772;8.846;2023-01-19T12:09:20;1.83;;;1.73;;
253;SDS011;590;48.772;8.846;2023-01-19T12:11:53;2.20;;;2.00;;
253;SDS011;590;48.772;8.846;2023-01-19T12:14:26;1.63;;;1.53;;
253;SDS011;590;48.772;8.846;2023-01-19T13:55:28;1.77;;;1.67;;
253;SDS011;590;48.772;8.846;2023-01-19T13:57:57;2.00;;;1.80;;
253;SDS011;590;48.772;8.846;2023-01-19T14:00:26;1.73;;;1.63;;
253;SDS011;590;48.772;8.846;2023-01-19T14:02:56;1.60;;;1.50;;
253;SDS011;590;48.772;8.846;2023-01-19T14:05:27;1.73;;;1.63;;
253;SDS011;590;48.772;8.846;2023-01-19T14:08:00;2.23;;;2.03;;
253;SDS011;590;48.772;8.846;2023-01-19T14:10:30;1.90;;;1.80;;
253;SDS011;590;48.772;8.846;2023-01-19T14:12:59;1.90;;;1.80;;
253;SDS011;590;48.772;8.846;2023-01-19T14:15:29;2.00;;;1.90;;
253;SDS011;590;48.772;8.846;2023-01-19T14:18:21;1.77;;;1.67;;
253;SDS011;590;48.772;8.846;2023-01-19T14:20:57;1.90;;;1.80;;
253;SDS011;590;48.772;8.846;2023-01-19T14:23:37;1.80;;;1.70;;
253;SDS011;590;48.772;8.846;2023-01-19T14:32:05;1.77;;;1.57;;
253;SDS011;590;48.772;8.846;2023-01-19T14:34:40;2.17;;;1.70;;
253;SDS011;590;48.772;8.846;2023-01-19T14:37:14;1.60;;;1.50;;
253;SDS011;590;48.772;8.846;2023-01-19T14:39:50;2.07;;;1.93;;
253;SDS011;590;48.772;8.846;2023-01-19T14:42:27;1.90;;;1.53;;
253;SDS011;590;48.772;8.846;2023-01-19T14:44:58;1.63;;;1.53;;
253;SDS011;590;48.772;8.846;2023-01-19T14:47:30;1.80;;;1.70;;
253;SDS011;590;48.772;8.846;2023-01-19T14:50:02;1.93;;;1.83;;
253;SDS011;590;48.772;8.846;2023-01-19T14:52:37;1.70;;;1.60;;
253;SDS011;590;48.772;8.846;2023-01-19T14:57:46;1.67;;;1.57;;
253;SDS011;590;48.772;8.846;2023-01-19T15:02:43;1.90;;;1.80;;
253;SDS011;590;48.772;8.846;2023-01-19T15:05:12;1.70;;;1.60;;
253;SDS011;590;48.772;8.846;2023-01-19T15:07:41;1.93;;;1.83;;
253;SDS011;590;48.772;8.846;2023-01-19T15:10:13;1.90;;;1.80;;
253;SDS011;590;48.772;8.846;2023-01-19T15:12:44;1.77;;;1.67;;
253;SDS011;590;48.772;8.846;2023-01-19T15:15:17;1.50;;;1.40;;
253;SDS011;590;48.772;8.846;2023-01-19T15:17:51;1.80;;;1.70;;
253;SDS011;590;48.772;8.846;2023-01-19T15:20:21;1.60;;;1.50;;
253;SDS011;590;48.772;8.846;2023-01-19T15:22:49;1.67;;;1.63;;
253;SDS011;590;48.772;8.846;2023-01-19T15:25:18;1.60;;;1.50;;
253;SDS011;590;48.772;8.846;2023-01-19T15:27:47;1.30;;;1.30;;
253;SDS011;590;48.772;8.846;2023-01-19T15:30:18;1.73;;;1.53;;
253;SDS011;590;48.772;8.846;2023-01-19T15:32:48;1.90;;;1.80;;
253;SDS011;590;48.772;8.846;2023-01-19T15:35:17;1.67;;;1.57;;
253;SDS011;590;48.772;8.846;2023-01-19T15:37:47;1.60;;;1.50;;
253;SDS011;590;48.772;8.846;2023-01-19T15:40:16;1.80;;;1.70;;
253;SDS011;590;48.772;8.846;2023-01-19T15:42:47;1.97;;;1.87;;
253;SDS011;590;48.772;8.846;2023-01-19T15:45:26;1.90;;;1.80;;
253;SDS011;590;48.772;8.846;2023-01-19T15:47:59;1.97;;;1.87;;
253;SDS011;590;48.772;8.846;2023-01-19T15:50:29;2.53;;;2.40;;
253;SDS011;590;48.772;8.846;2023-01-19T15:52:57;1.83;;;1.80;;
253;SDS011;590;48.772;8.846;2023-01-19T15:55:25;2.00;;;1.90;;
253;SDS011;590;48.772;8.846;2023-01-19T15:57:53;2.47;;;2.27;;
253;SDS011;590;48.772;8.846;2023-01-19T16:00:28;2.43;;;2.23;;
253;SDS011;590;48.772;8.846;2023-01-19T16:02:57;2.10;;;1.97;;
253;SDS011;590;48.772;8.846;2023-01-19T16:05:25;2.70;;;2.50;;
253;SDS011;590;48.772;8.846;2023-01-19T16:08:07;1.83;;;1.73;;
253;SDS011;590;48.772;8.846;2023-01-19T16:10:36;2.33;;;2.13;;
253;SDS011;590;48.772;8.846;2023-01-19T16:13:04;1.90;;;1.80;;
253;SDS011;590;48.772;8.846;2023-01-19T16:15:34;2.30;;;2.10;;
253;SDS011;590;48.772;8.846;2023-01-19T16:18:03;2.30;;;2.10;;
253;SDS011;590;48.772;8.846;2023-01-19T16:20:32;2.47;;;2.27;;
253;SDS011;590;48.772;8.846;2023-01-19T16:23:00;2.80;;;2.60;;
253;SDS011;590;48.772;8.846;2023-01-19T16:25:40;2.63;;;2.43;;
253;SDS011;590;48.772;8.846;2023-01-19T16:28:08;2.40;;;2.20;;
253;SDS011;590;48.772;8.846;2023-01-19T16:30:38;2.40;;;2.20;;
253;SDS011;590;48.772;8.846;2023-01-19T16:33:07;2.47;;;2.27;;
253;SDS011;590;48.772;8.846;2023-01-19T16:35:36;2.67;;;2.47;;
253;SDS011;590;48.772;8.846;2023-01-19T16:38:05;2.50;;;2.30;;
253;SDS011;590;48.772;8.846;2023-01-19T16:40:34;2.27;;;2.07;;
253;SDS011;590;48.772;8.846;2023-01-19T16:43:02;3.10;;;2.90;;
253;SDS011;590;48.772;8.846;2023-01-19T16:45:30;2.60;;;2.40;;
253;SDS011;590;48.772;8.846;2023-01-19T16:48:00;2.97;;;2.77;;
253;SDS011;590;48.772;8.846;2023-01-19T16:50:28;2.53;;;2.33;;
253;SDS011;590;48.772;8.846;2023-01-19T16:52:56;2.90;;;2.70;;
253;SDS011;590;48.772;8.846;2023-01-19T16:55:24;3.23;;;3.03;;
253;SDS011;590;48.772;8.846;2023-01-19T16:57:53;2.43;;;2.23;;
253;SDS011;590;48.772;8.846;2023-01-19T17:00:21;3.00;;;2.80;;
253;SDS011;590;48.772;8.846;2023-01-19T17:02:50;3.20;;;3.00;;
253;SDS011;590;48.772;8.846;2023-01-19T17:05:19;3.40;;;3.20;;
253;SDS011;590;48.772;8.846;2023-01-19T17:07:47;2.57;;;2.37;;
253;SDS011;590;48.772;8.846;2023-01-19T17:10:15;3.17;;;2.97;;
253;SDS011;590;48.772;8.846;2023-01-19T17:12:43;2.73;;;2.53;;
253;SDS011;590;48.772;8.846;2023-01-19T17:15:11;3.20;;;3.00;;
253;SDS011;590;48.772;8.846;2023-01-19T17:17:39;3.20;;;3.00;;
253;SDS011;590;48.772;8.846;2023-01-19T17:20:08;2.90;;;2.70;;
253;SDS011;590;48.772;8.846;2023-01-19T17:22:38;2.83;;;2.63;;
253;SDS011;590;48.772;8.846;2023-01-19T17:25:06;3.43;;;3.23;;
253;SDS011;590;48.772;8.846;2023-01-19T17:27:34;3.43;;;3.23;;
253;SDS011;590;48.772;8.846;2023-01-19T17:30:03;3.30;;;3.10;;
253;SDS011;590;48.772;8.846;2023-01-19T17:32:31;3.50;;;3.30;;
253;SDS011;590;48.772;8.846;2023-01-19T17:34:59;3.97;;;3.77;;
253;SDS011;590;48.772;8.846;2023-01-19T17:37:27;3.40;;;3.20;;
253;SDS011;590;48.772;8.846;2023-01-19T17:39:56;3.10;;;2.90;;
253;SDS011;590;48.772;8.846;2023-01-19T17:42:24;3.50;;;3.30;;
253;SDS011;590;48.772;8.846;2023-01-19T17:44:52;3.33;;;3.13;;
253;SDS011;590;48.772;8.846;2023-01-19T17:47:20;3.53;;;3.33;;
253;SDS011;590;48.772;8.846;2023-01-19T17:49:51;4.30;;;4.00;;
253;SDS011;590;48.772;8.846;2023-01-19T17:52:19;4.00;;;3.80;;
253;SDS011;590;48.772;8.846;2023-01-19T17:54:47;3.97;;;3.77;;
253;SDS011;590;48.772;8.846;2023-01-19T17:57:16;3.23;;;3.03;;
253;SDS011;590;48.772;8.846;2023-01-19T17:59:45;3.80;;;3.60;;
253;SDS011;590;48.772;8.846;2023-01-19T18:02:13;3.60;;;3.40;;
253;SDS011;590;48.772;8.846;2023-01-19T18:04:41;4.00;;;3.80;;